sensor_id;sensor_type;location;lat;lon;timestamp;P1;durP1;ratioP1;P2;durP2;ratioP2
6053;SDS011;3055;50.886;14.814;2023-05-13T00:01:42;5.40;;;4.90;;
6053;SDS011;3055;50.886;14.814;2023-05-13T00:04:09;6.03;;;5.20;;
6053;SDS011;3055;50.886;14.814;2023-05-13T00:06:36;5.23;;;4.83;;
6053;SDS011;3055;50.886;14.814;2023-05-13T00:09:03;5.37;;;4.87;;
6053;SDS011;3055;50.886;14.814;2023-05-13T00:11:30;6.33;;;5.60;;
6053;SDS011;3055;50.886;14.814;2023-05-13T00:13:59;6.63;;;5.13;;
6053;SDS011;3055;50.886;14.814;2023-05-13T00:16:26;7.57;;;5.87;;
6053;SDS011;3055;50.886;14.814;2023-05-13T00:18:53;9.13;;;5.43;;
6053;SDS011;3055;50.886;14.814;2023-05-13T00:21:20;7.10;;;5.50;;
6053;SDS011;3055;50.886;14.814;2023-05-13T00:23:47;7.47;;;5.83;;
6053;SDS011;3055;50.886;14.814;2023-05-13T00:26:14;7.97;;;6.67;;
6053;SDS011;3055;50.886;14.814;2023-05-13T00:28:42;10.00;;;6.70;;
6053;SDS011;3055;50.886;14.814;2023-05-13T00:31:10;9.23;;;7.00;;
6053;SDS011;3055;50.886;14.814;2023-05-13T00:33:37;9.03;;;7.07;;
6053;SDS011;3055;50.886;14.814;2023-05-13T00:36:04;8.90;;;6.50;;
6053;SDS011;3055;50.886;14.814;2023-05-13T00:38:34;10.57;;;6.93;;
6053;SDS011;3055;50.886;14.814;2023-05-13T00:41:02;8.80;;;6.57;;
6053;SDS011;3055;50.886;14.814;2023-05-13T00:43:29;8.23;;;6.43;;
6053;SDS011;3055;50.886;14.814;2023-05-13T00:45:56;7.83;;;6.70;;
6053;SDS011;3055;50.886;14.814;2023-05-13T00:48:25;8.13;;;6.50;;
6053;SDS011;3055;50.886;14.814;2023-05-13T00:50:52;9.13;;;6.60;;
6053;SDS011;3055;50.886;14.814;2023-05-13T00:53:20;8.47;;;6.53;;
6053;SDS011;3055;50.886;14.814;2023-05-13T00:55:47;9.30;;;7.13;;
6053;SDS011;3055;50.886;14.814;2023-05-13T00:58:14;8.67;;;6.97;;
6053;SDS011;3055;50.886;14.814;2023-05-13T01:00:44;9.03;;;7.47;;
6053;SDS011;3055;50.886;14.814;2023-05-13T01:03:18;8.20;;;7.40;;
6053;SDS011;3055;50.886;14.814;2023-05-13T01:05:53;7.53;;;6.33;;
6053;SDS011;3055;50.886;14.814;2023-05-13T01:08:28;9.20;;;7.00;;
6053;SDS011;3055;50.886;14.814;2023-05-13T01:11:02;9.03;;;6.40;;
6053;SDS011;3055;50.886;14.814;2023-05-13T01:13:35;9.33;;;6.87;;
6053;SDS011;3055;50.886;14.814;2023-05-13T01:16:10;6.87;;;6.17;;
6053;SDS011;3055;50.886;14.814;2023-05-13T01:18:44;7.83;;;6.80;;
6053;SDS011;3055;50.886;14.814;2023-05-13T01:23:51;6.90;;;6.20;;
6053;SDS011;3055;50.886;14.814;2023-05-13T01:26:18;6.90;;;6.27;;
6053;SDS011;3055;50.886;14.814;2023-05-13T01:28:45;8.97;;;6.83;;
6053;SDS011;3055;50.886;14.814;2023-05-13T01:31:13;10.37;;;7.27;;
6053;SDS011;3055;50.886;14.814;2023-05-13T01:33:40;8.70;;;7.10;;
6053;SDS011;3055;50.886;14.814;2023-05-13T01:36:09;6.60;;;5.90;;
6053;SDS011;3055;50.886;14.814;2023-05-13T01:38:38;7.03;;;6.17;;
6053;SDS011;3055;50.886;14.814;2023-05-13T01:41:06;7.90;;;6.13;;
6053;SDS011;3055;50.886;14.814;2023-05-13T01:43:33;6.70;;;6.00;;
6053;SDS011;3055;50.886;14.814;2023-05-13T01:46:00;7.00;;;6.37;;
6053;SDS011;3055;50.886;14.814;2023-05-13T01:48:27;7.30;;;6.57;;
6053;SDS011;3055;50.886;14.814;2023-05-13T01:50:54;7.10;;;6.40;;
6053;SDS011;3055;50.886;14.814;2023-05-13T01:53:21;7.27;;;6.23;;
6053;SDS011;3055;50.886;14.814;2023-05-13T01:55:50;7.00;;;6.30;;
6053;SDS011;3055;50.886;14.814;2023-05-13T01:58:17;7.37;;;6.53;;
6053;SDS011;3055;50.886;14.814;2023-05-13T02:00:44;8.03;;;7.17;;
6053;SDS011;3055;50.886;14.814;2023-05-13T02:03:11;7.53;;;6.73;;
6053;SDS011;3055;50.886;14.814;2023-05-13T02:05:38;8.37;;;7.47;;
6053;SDS011;3055;50.886;14.814;2023-05-13T02:08:06;8.70;;;7.20;;
6053;SDS011;3055;50.886;14.814;2023-05-13T02:10:33;9.97;;;8.03;;
6053;SDS011;3055;50.886;14.814;2023-05-13T02:13:01;9.20;;;8.30;;
6053;SDS011;3055;50.886;14.814;2023-05-13T02:15:28;9.73;;;8.03;;
6053;SDS011;3055;50.886;14.814;2023-05-13T02:17:55;9.10;;;8.20;;
6053;SDS011;3055;50.886;14.814;2023-05-13T02:20:22;8.57;;;7.63;;
6053;SDS011;3055;50.886;14.814;2023-05-13T02:22:50;7.67;;;6.93;;
6053;SDS011;3055;50.886;14.814;2023-05-13T02:25:17;9.43;;;8.43;;
6053;SDS011;3055;50.886;14.814;2023-05-13T02:27:44;8.47;;;7.57;;
6053;SDS011;3055;50.886;14.814;2023-05-13T02:30:13;9.50;;;7.40;;
6053;SDS011;3055;50.886;14.814;2023-05-13T02:32:40;9.93;;;7.53;;
6053;SDS011;3055;50.886;14.814;2023-05-13T02:35:08;9.33;;;7.67;;
6053;SDS011;3055;50.886;14.814;2023-05-13T02:37:35;11.27;;;8.13;;
6053;SDS011;3055;50.886;14.814;2023-05-13T02:40:02;9.97;;;8.40;;
6053;SDS011;3055;50.886;14.814;2023-05-13T02:42:30;9.10;;;8.00;;
6053;SDS011;3055;50.886;14.814;2023-05-13T02:44:57;10.47;;;8.70;;
6053;SDS011;3055;50.886;14.814;2023-05-13T02:47:25;8.87;;;7.97;;
6053;SDS011;3055;50.886;14.814;2023-05-13T02:49:53;8.57;;;7.67;;
6053;SDS011;3055;50.886;14.814;2023-05-13T02:52:21;8.37;;;7.40;;
6053;SDS011;3055;50.886;14.814;2023-05-13T02:54:48;7.63;;;6.90;;
6053;SDS011;3055;50.886;14.814;2023-05-13T02:57:15;7.30;;;6.60;;
6053;SDS011;3055;50.886;14.814;2023-05-13T02:59:42;7.57;;;6.53;;
6053;SDS011;3055;50.886;14.814;2023-05-13T03:02:09;8.73;;;7.37;;
6053;SDS011;3055;50.886;14.814;2023-05-13T03:04:38;10.47;;;6.83;;
6053;SDS011;3055;50.886;14.814;2023-05-13T03:07:05;7.33;;;6.63;;
6053;SDS011;3055;50.886;14.814;2023-05-13T03:09:32;7.37;;;6.67;;
6053;SDS011;3055;50.886;14.814;2023-05-13T03:12:03;8.40;;;7.27;;
6053;SDS011;3055;50.886;14.814;2023-05-13T03:14:31;7.63;;;6.80;;
6053;SDS011;3055;50.886;14.814;2023-05-13T03:17:00;10.30;;;7.13;;
6053;SDS011;3055;50.886;14.814;2023-05-13T03:19:27;8.40;;;7.57;;
6053;SDS011;3055;50.886;14.814;2023-05-13T03:21:56;7.57;;;6.87;;
6053;SDS011;3055;50.886;14.814;2023-05-13T03:24:23;7.37;;;6.67;;
6053;SDS011;3055;50.886;14.814;2023-05-13T03:26:50;9.93;;;6.70;;
6053;SDS011;3055;50.886;14.814;2023-05-13T03:29:17;7.80;;;6.40;;
6053;SDS011;3055;50.886;14.814;2023-05-13T03:31:44;7.60;;;6.80;;
6053;SDS011;3055;50.886;14.814;2023-05-13T03:34:11;7.63;;;6.93;;
6053;SDS011;3055;50.886;14.814;2023-05-13T03:36:38;8.77;;;6.83;;
6053;SDS011;3055;50.886;14.814;2023-05-13T03:39:07;7.07;;;6.40;;
6053;SDS011;3055;50.886;14.814;2023-05-13T03:41:34;7.77;;;6.97;;
6053;SDS011;3055;50.886;14.814;2023-05-13T03:44:01;7.90;;;7.13;;
6053;SDS011;3055;50.886;14.814;2023-05-13T03:46:28;8.77;;;7.37;;
6053;SDS011;3055;50.886;14.814;2023-05-13T03:48:56;8.43;;;7.57;;
6053;SDS011;3055;50.886;14.814;2023-05-13T03:51:23;9.03;;;7.77;;
6053;SDS011;3055;50.886;14.814;2023-05-13T03:53:50;9.60;;;8.70;;
6053;SDS011;3055;50.886;14.814;2023-05-13T03:56:18;9.87;;;8.87;;
6053;SDS011;3055;50.886;14.814;2023-05-13T03:58:46;11.73;;;8.80;;
6053;SDS011;3055;50.886;14.814;2023-05-13T04:01:13;9.87;;;7.80;;
6053;SDS011;3055;50.886;14.814;2023-05-13T04:03:40;8.60;;;7.23;;
6053;SDS011;3055;50.886;14.814;2023-05-13T04:06:09;7.87;;;6.97;;
6053;SDS011;3055;50.886;14.814;2023-05-13T04:08:38;7.60;;;6.77;;
6053;SDS011;3055;50.886;14.814;2023-05-13T04:11:05;7.27;;;6.57;;
6053;SDS011;3055;50.886;14.814;2023-05-13T04:13:34;8.47;;;7.73;;
6053;SDS011;3055;50.886;14.814;2023-05-13T04:16:01;8.90;;;7.97;;
6053;SDS011;3055;50.886;14.814;2023-05-13T04:18:28;8.23;;;7.43;;
6053;SDS011;3055;50.886;14.814;2023-05-13T04:20:55;7.37;;;6.67;;
6053;SDS011;3055;50.886;14.814;2023-05-13T04:23:22;8.73;;;7.10;;
6053;SDS011;3055;50.886;14.814;2023-05-13T04:25:50;9.63;;;6.37;;
6053;SDS011;3055;50.886;14.814;2023-05-13T04:28:17;6.40;;;5.80;;
6053;SDS011;3055;50.886;14.814;2023-05-13T04:30:46;6.33;;;5.40;;
6053;SDS011;3055;50.886;14.814;2023-05-13T04:33:13;7.30;;;5.77;;
6053;SDS011;3055;50.886;14.814;2023-05-13T04:35:40;6.03;;;5.33;;
6053;SDS011;3055;50.886;14.814;2023-05-13T04:38:07;5.80;;;5.30;;
6053;SDS011;3055;50.886;14.814;2023-05-13T04:40:34;6.43;;;5.40;;
6053;SDS011;3055;50.886;14.814;2023-05-13T04:43:01;6.10;;;5.50;;
6053;SDS011;3055;50.886;14.814;2023-05-13T04:45:28;5.57;;;4.97;;
6053;SDS011;3055;50.886;14.814;2023-05-13T04:47:57;7.97;;;5.30;;
6053;SDS011;3055;50.886;14.814;2023-05-13T04:50:24;6.57;;;5.30;;
6053;SDS011;3055;50.886;14.814;2023-05-13T04:52:51;5.50;;;5.00;;
6053;SDS011;3055;50.886;14.814;2023-05-13T04:55:18;5.90;;;5.40;;
6053;SDS011;3055;50.886;14.814;2023-05-13T04:57:46;6.47;;;5.73;;
6053;SDS011;3055;50.886;14.814;2023-05-13T05:00:13;6.50;;;5.73;;
6053;SDS011;3055;50.886;14.814;2023-05-13T05:02:41;7.43;;;6.60;;
6053;SDS011;3055;50.886;14.814;2023-05-13T05:05:09;6.80;;;6.10;;
6053;SDS011;3055;50.886;14.814;2023-05-13T05:07:36;7.03;;;5.80;;
6053;SDS011;3055;50.886;14.814;2023-05-13T05:10:06;6.60;;;6.00;;
6053;SDS011;3055;50.886;14.814;2023-05-13T05:12:33;8.77;;;6.13;;
6053;SDS011;3055;50.886;14.814;2023-05-13T05:15:02;6.73;;;5.83;;
6053;SDS011;3055;50.886;14.814;2023-05-13T05:17:29;6.30;;;5.70;;
6053;SDS011;3055;50.886;14.814;2023-05-13T05:19:57;6.87;;;5.70;;
6053;SDS011;3055;50.886;14.814;2023-05-13T05:22:26;7.00;;;6.23;;
6053;SDS011;3055;50.886;14.814;2023-05-13T05:24:53;7.00;;;6.20;;
6053;SDS011;3055;50.886;14.814;2023-05-13T05:27:20;6.53;;;5.93;;
6053;SDS011;3055;50.886;14.814;2023-05-13T05:29:47;6.27;;;5.67;;
6053;SDS011;3055;50.886;14.814;2023-05-13T05:32:14;7.67;;;5.67;;
6053;SDS011;3055;50.886;14.814;2023-05-13T05:34:41;6.23;;;5.63;;
6053;SDS011;3055;50.886;14.814;2023-05-13T05:37:08;7.93;;;6.10;;
6053;SDS011;3055;50.886;14.814;2023-05-13T05:39:36;8.17;;;6.27;;
6053;SDS011;3055;50.886;14.814;2023-05-13T05:42:05;7.40;;;6.10;;
6053;SDS011;3055;50.886;14.814;2023-05-13T05:44:32;6.23;;;5.60;;
6053;SDS011;3055;50.886;14.814;2023-05-13T05:47:00;6.30;;;5.70;;
6053;SDS011;3055;50.886;14.814;2023-05-13T05:49:27;6.90;;;5.63;;
6053;SDS011;3055;50.886;14.814;2023-05-13T05:51:54;6.83;;;5.60;;
6053;SDS011;3055;50.886;14.814;2023-05-13T05:54:21;5.67;;;5.17;;
6053;SDS011;3055;50.886;14.814;2023-05-13T05:56:49;5.83;;;5.23;;
6053;SDS011;3055;50.886;14.814;2023-05-13T05:59:16;5.77;;;5.20;;
6053;SDS011;3055;50.886;14.814;2023-05-13T06:01:44;5.37;;;4.87;;
6053;SDS011;3055;50.886;14.814;2023-05-13T06:04:11;6.30;;;4.97;;
6053;SDS011;3055;50.886;14.814;2023-05-13T06:06:38;6.00;;;5.47;;
6053;SDS011;3055;50.886;14.814;2023-05-13T06:09:05;8.17;;;5.10;;
6053;SDS011;3055;50.886;14.814;2023-05-13T06:11:32;7.50;;;5.67;;
6053;SDS011;3055;50.886;14.814;2023-05-13T06:14:00;6.30;;;5.73;;
6053;SDS011;3055;50.886;14.814;2023-05-13T06:16:27;6.97;;;5.50;;
6053;SDS011;3055;50.886;14.814;2023-05-13T06:18:54;5.67;;;5.03;;
6053;SDS011;3055;50.886;14.814;2023-05-13T06:21:21;5.80;;;5.30;;
6053;SDS011;3055;50.886;14.814;2023-05-13T06:23:48;5.17;;;4.63;;
6053;SDS011;3055;50.886;14.814;2023-05-13T06:26:15;5.10;;;4.60;;
6053;SDS011;3055;50.886;14.814;2023-05-13T06:28:42;4.37;;;3.80;;
6053;SDS011;3055;50.886;14.814;2023-05-13T06:31:10;6.73;;;4.50;;
6053;SDS011;3055;50.886;14.814;2023-05-13T06:33:37;5.23;;;4.40;;
6053;SDS011;3055;50.886;14.814;2023-05-13T06:36:05;5.03;;;4.53;;
6053;SDS011;3055;50.886;14.814;2023-05-13T06:38:33;4.60;;;4.07;;
6053;SDS011;3055;50.886;14.814;2023-05-13T06:41:00;7.27;;;4.40;;
6053;SDS011;3055;50.886;14.814;2023-05-13T06:43:27;4.77;;;4.10;;
6053;SDS011;3055;50.886;14.814;2023-05-13T06:45:54;6.23;;;4.30;;
6053;SDS011;3055;50.886;14.814;2023-05-13T06:48:23;5.30;;;3.93;;
6053;SDS011;3055;50.886;14.814;2023-05-13T06:50:50;5.43;;;4.57;;
6053;SDS011;3055;50.886;14.814;2023-05-13T06:53:17;5.27;;;3.93;;
6053;SDS011;3055;50.886;14.814;2023-05-13T06:55:44;4.30;;;3.90;;
6053;SDS011;3055;50.886;14.814;2023-05-13T06:58:11;4.63;;;4.23;;
6053;SDS011;3055;50.886;14.814;2023-05-13T07:00:38;5.20;;;4.17;;
6053;SDS011;3055;50.886;14.814;2023-05-13T07:03:06;7.40;;;4.30;;
6053;SDS011;3055;50.886;14.814;2023-05-13T07:05:35;4.53;;;4.13;;
6053;SDS011;3055;50.886;14.814;2023-05-13T07:08:02;4.63;;;4.23;;
6053;SDS011;3055;50.886;14.814;2023-05-13T07:10:32;4.37;;;3.97;;
6053;SDS011;3055;50.886;14.814;2023-05-13T07:13:00;5.50;;;4.10;;
6053;SDS011;3055;50.886;14.814;2023-05-13T07:15:28;6.33;;;5.33;;
6053;SDS011;3055;50.886;14.814;2023-05-13T07:17:55;5.00;;;4.30;;
6053;SDS011;3055;50.886;14.814;2023-05-13T07:20:22;6.17;;;4.30;;
6053;SDS011;3055;50.886;14.814;2023-05-13T07:22:51;5.30;;;4.07;;
6053;SDS011;3055;50.886;14.814;2023-05-13T07:25:18;57.63;;;8.93;;
6053;SDS011;3055;50.886;14.814;2023-05-13T07:27:46;7.67;;;4.40;;
6053;SDS011;3055;50.886;14.814;2023-05-13T07:30:13;7.33;;;3.90;;
6053;SDS011;3055;50.886;14.814;2023-05-13T07:32:40;4.67;;;4.27;;
6053;SDS011;3055;50.886;14.814;2023-05-13T07:35:07;8.73;;;3.90;;
6053;SDS011;3055;50.886;14.814;2023-05-13T07:37:35;5.10;;;3.87;;
6053;SDS011;3055;50.886;14.814;2023-05-13T07:40:04;4.73;;;3.67;;
6053;SDS011;3055;50.886;14.814;2023-05-13T07:42:32;5.40;;;3.40;;
6053;SDS011;3055;50.886;14.814;2023-05-13T07:44:59;4.40;;;3.97;;
6053;SDS011;3055;50.886;14.814;2023-05-13T07:47:26;4.07;;;3.67;;
6053;SDS011;3055;50.886;14.814;2023-05-13T07:49:55;4.23;;;3.83;;
6053;SDS011;3055;50.886;14.814;2023-05-13T07:52:22;5.03;;;3.63;;
6053;SDS011;3055;50.886;14.814;2023-05-13T07:54:49;6.20;;;3.80;;
6053;SDS011;3055;50.886;14.814;2023-05-13T07:57:18;9.20;;;3.97;;
6053;SDS011;3055;50.886;14.814;2023-05-13T07:59:45;5.50;;;3.90;;
6053;SDS011;3055;50.886;14.814;2023-05-13T08:02:12;5.10;;;3.90;;
6053;SDS011;3055;50.886;14.814;2023-05-13T08:04:39;6.63;;;3.80;;
6053;SDS011;3055;50.886;14.814;2023-05-13T08:07:08;5.03;;;3.57;;
6053;SDS011;3055;50.886;14.814;2023-05-13T08:09:36;7.83;;;3.87;;
6053;SDS011;3055;50.886;14.814;2023-05-13T08:12:03;6.27;;;3.70;;
6053;SDS011;3055;50.886;14.814;2023-05-13T08:14:32;4.73;;;3.20;;
6053;SDS011;3055;50.886;14.814;2023-05-13T08:16:59;3.70;;;3.27;;
6053;SDS011;3055;50.886;14.814;2023-05-13T08:19:27;4.10;;;3.23;;
6053;SDS011;3055;50.886;14.814;2023-05-13T08:21:54;4.10;;;3.30;;
6053;SDS011;3055;50.886;14.814;2023-05-13T08:24:21;5.07;;;2.97;;
6053;SDS011;3055;50.886;14.814;2023-05-13T08:26:48;6.90;;;3.63;;
6053;SDS011;3055;50.886;14.814;2023-05-13T08:29:15;3.50;;;3.20;;
6053;SDS011;3055;50.886;14.814;2023-05-13T08:31:44;4.63;;;3.57;;
6053;SDS011;3055;50.886;14.814;2023-05-13T08:34:11;5.20;;;3.30;;
6053;SDS011;3055;50.886;14.814;2023-05-13T08:36:39;6.80;;;3.63;;
6053;SDS011;3055;50.886;14.814;2023-05-13T08:39:06;3.40;;;3.10;;
6053;SDS011;3055;50.886;14.814;2023-05-13T08:41:33;4.30;;;3.37;;
6053;SDS011;3055;50.886;14.814;2023-05-13T08:44:01;6.53;;;3.60;;
6053;SDS011;3055;50.886;14.814;2023-05-13T08:46:30;5.67;;;3.17;;
6053;SDS011;3055;50.886;14.814;2023-05-13T08:49:00;4.17;;;3.77;;
6053;SDS011;3055;50.886;14.814;2023-05-13T08:51:27;4.83;;;3.20;;
6053;SDS011;3055;50.886;14.814;2023-05-13T08:53:56;5.67;;;3.90;;
6053;SDS011;3055;50.886;14.814;2023-05-13T08:56:24;5.97;;;3.87;;
6053;SDS011;3055;50.886;14.814;2023-05-13T08:58:53;5.10;;;3.10;;
6053;SDS011;3055;50.886;14.814;2023-05-13T09:01:20;5.77;;;3.20;;
6053;SDS011;3055;50.886;14.814;2023-05-13T09:03:51;4.27;;;3.13;;
6053;SDS011;3055;50.886;14.814;2023-05-13T09:06:24;4.03;;;3.00;;
6053;SDS011;3055;50.886;14.814;2023-05-13T09:08:51;7.93;;;3.47;;
6053;SDS011;3055;50.886;14.814;2023-05-13T09:11:18;3.93;;;3.27;;
6053;SDS011;3055;50.886;14.814;2023-05-13T09:13:54;4.20;;;3.53;;
6053;SDS011;3055;50.886;14.814;2023-05-13T09:16:22;3.80;;;3.30;;
6053;SDS011;3055;50.886;14.814;2023-05-13T09:18:54;3.90;;;3.00;;
6053;SDS011;3055;50.886;14.814;2023-05-13T09:21:24;3.73;;;2.63;;
6053;SDS011;3055;50.886;14.814;2023-05-13T09:24:00;3.10;;;2.40;;
6053;SDS011;3055;50.886;14.814;2023-05-13T09:26:34;3.97;;;3.00;;
6053;SDS011;3055;50.886;14.814;2023-05-13T09:29:17;4.27;;;2.47;;
6053;SDS011;3055;50.886;14.814;2023-05-13T09:31:49;4.43;;;2.40;;
6053;SDS011;3055;50.886;14.814;2023-05-13T09:34:24;3.70;;;2.70;;
6053;SDS011;3055;50.886;14.814;2023-05-13T09:37:03;2.77;;;2.30;;
6053;SDS011;3055;50.886;14.814;2023-05-13T09:39:32;6.27;;;2.67;;
6053;SDS011;3055;50.886;14.814;2023-05-13T09:41:59;3.10;;;2.80;;
6053;SDS011;3055;50.886;14.814;2023-05-13T09:44:28;2.90;;;2.60;;
6053;SDS011;3055;50.886;14.814;2023-05-13T09:46:55;4.83;;;2.10;;
6053;SDS011;3055;50.886;14.814;2023-05-13T09:49:23;3.03;;;2.27;;
6053;SDS011;3055;50.886;14.814;2023-05-13T09:51:53;2.70;;;2.50;;
6053;SDS011;3055;50.886;14.814;2023-05-13T09:54:22;3.10;;;2.40;;
6053;SDS011;3055;50.886;14.814;2023-05-13T09:56:49;2.70;;;2.30;;
6053;SDS011;3055;50.886;14.814;2023-05-13T09:59:25;2.53;;;2.23;;
6053;SDS011;3055;50.886;14.814;2023-05-13T10:01:53;2.47;;;2.27;;
6053;SDS011;3055;50.886;14.814;2023-05-13T10:04:24;2.50;;;2.23;;
6053;SDS011;3055;50.886;14.814;2023-05-13T10:06:51;2.60;;;2.30;;
6053;SDS011;3055;50.886;14.814;2023-05-13T10:09:19;3.37;;;2.37;;
6053;SDS011;3055;50.886;14.814;2023-05-13T10:11:48;2.70;;;2.50;;
6053;SDS011;3055;50.886;14.814;2023-05-13T10:14:15;2.87;;;2.50;;
6053;SDS011;3055;50.886;14.814;2023-05-13T10:16:44;3.47;;;2.37;;
6053;SDS011;3055;50.886;14.814;2023-05-13T10:19:12;2.40;;;2.20;;
6053;SDS011;3055;50.886;14.814;2023-05-13T10:21:39;5.30;;;2.50;;
6053;SDS011;3055;50.886;14.814;2023-05-13T10:24:06;2.70;;;2.50;;
6053;SDS011;3055;50.886;14.814;2023-05-13T10:26:34;2.87;;;2.27;;
6053;SDS011;3055;50.886;14.814;2023-05-13T10:29:02;2.47;;;2.23;;
6053;SDS011;3055;50.886;14.814;2023-05-13T10:31:30;3.37;;;2.23;;
6053;SDS011;3055;50.886;14.814;2023-05-13T10:33:57;4.60;;;2.70;;
6053;SDS011;3055;50.886;14.814;2023-05-13T10:36:32;7.53;;;3.47;;
6053;SDS011;3055;50.886;14.814;2023-05-13T10:39:15;5.13;;;3.60;;
6053;SDS011;3055;50.886;14.814;2023-05-13T10:42:16;4.73;;;4.10;;
6053;SDS011;3055;50.886;14.814;2023-05-13T10:45:03;6.17;;;4.30;;
6053;SDS011;3055;50.886;14.814;2023-05-13T10:47:31;6.33;;;4.20;;
6053;SDS011;3055;50.886;14.814;2023-05-13T10:49:58;5.63;;;3.97;;
6053;SDS011;3055;50.886;14.814;2023-05-13T10:52:40;7.33;;;4.47;;
6053;SDS011;3055;50.886;14.814;2023-05-13T10:55:13;5.03;;;4.10;;
6053;SDS011;3055;50.886;14.814;2023-05-13T10:57:41;5.03;;;4.23;;
6053;SDS011;3055;50.886;14.814;2023-05-13T11:00:30;9.27;;;4.20;;
6053;SDS011;3055;50.886;14.814;2023-05-13T11:03:07;5.70;;;4.43;;
6053;SDS011;3055;50.886;14.814;2023-05-13T11:05:37;6.10;;;3.90;;
6053;SDS011;3055;50.886;14.814;2023-05-13T11:08:05;4.60;;;4.00;;
6053;SDS011;3055;50.886;14.814;2023-05-13T11:10:32;5.70;;;4.43;;
6053;SDS011;3055;50.886;14.814;2023-05-13T11:13:07;5.30;;;4.37;;
6053;SDS011;3055;50.886;14.814;2023-05-13T11:15:47;5.90;;;4.40;;
6053;SDS011;3055;50.886;14.814;2023-05-13T11:18:15;26.30;;;5.80;;
6053;SDS011;3055;50.886;14.814;2023-05-13T11:20:44;4.80;;;4.17;;
6053;SDS011;3055;50.886;14.814;2023-05-13T11:23:16;11.13;;;4.27;;
6053;SDS011;3055;50.886;14.814;2023-05-13T11:25:44;7.30;;;3.70;;
6053;SDS011;3055;50.886;14.814;2023-05-13T11:28:14;11.23;;;4.63;;
6053;SDS011;3055;50.886;14.814;2023-05-13T11:30:53;8.57;;;4.63;;
6053;SDS011;3055;50.886;14.814;2023-05-13T11:33:20;9.33;;;4.80;;
6053;SDS011;3055;50.886;14.814;2023-05-13T11:35:54;5.27;;;4.10;;
6053;SDS011;3055;50.886;14.814;2023-05-13T11:38:22;7.70;;;4.20;;
6053;SDS011;3055;50.886;14.814;2023-05-13T11:40:50;4.77;;;4.00;;
6053;SDS011;3055;50.886;14.814;2023-05-13T11:43:20;11.37;;;3.83;;
6053;SDS011;3055;50.886;14.814;2023-05-13T11:45:49;4.40;;;4.00;;
6053;SDS011;3055;50.886;14.814;2023-05-13T11:48:19;6.40;;;3.67;;
6053;SDS011;3055;50.886;14.814;2023-05-13T11:50:48;7.07;;;3.77;;
6053;SDS011;3055;50.886;14.814;2023-05-13T11:53:19;8.57;;;3.70;;
6053;SDS011;3055;50.886;14.814;2023-05-13T11:55:47;3.77;;;3.47;;
6053;SDS011;3055;50.886;14.814;2023-05-13T11:58:15;7.60;;;4.23;;
6053;SDS011;3055;50.886;14.814;2023-05-13T12:00:42;10.93;;;4.50;;
6053;SDS011;3055;50.886;14.814;2023-05-13T12:03:10;11.00;;;4.40;;
6053;SDS011;3055;50.886;14.814;2023-05-13T12:05:41;7.27;;;3.40;;
6053;SDS011;3055;50.886;14.814;2023-05-13T12:08:09;8.73;;;3.47;;
6053;SDS011;3055;50.886;14.814;2023-05-13T12:10:41;3.47;;;2.60;;
6053;SDS011;3055;50.886;14.814;2023-05-13T12:13:08;19.43;;;6.83;;
6053;SDS011;3055;50.886;14.814;2023-05-13T12:15:36;8.50;;;4.17;;
6053;SDS011;3055;50.886;14.814;2023-05-13T12:18:03;4.57;;;2.50;;
6053;SDS011;3055;50.886;14.814;2023-05-13T12:20:33;3.27;;;2.73;;
6053;SDS011;3055;50.886;14.814;2023-05-13T12:23:03;3.13;;;2.83;;
6053;SDS011;3055;50.886;14.814;2023-05-13T12:25:40;4.33;;;2.77;;
6053;SDS011;3055;50.886;14.814;2023-05-13T12:28:10;5.90;;;3.20;;
6053;SDS011;3055;50.886;14.814;2023-05-13T12:30:41;2.87;;;2.50;;
6053;SDS011;3055;50.886;14.814;2023-05-13T12:33:13;3.20;;;2.33;;
6053;SDS011;3055;50.886;14.814;2023-05-13T12:35:41;7.20;;;3.63;;
6053;SDS011;3055;50.886;14.814;2023-05-13T12:38:13;13.13;;;4.07;;
6053;SDS011;3055;50.886;14.814;2023-05-13T12:40:42;4.33;;;3.10;;
6053;SDS011;3055;50.886;14.814;2023-05-13T12:43:10;4.73;;;3.60;;
6053;SDS011;3055;50.886;14.814;2023-05-13T12:45:38;6.13;;;3.73;;
6053;SDS011;3055;50.886;14.814;2023-05-13T12:48:06;6.03;;;3.33;;
6053;SDS011;3055;50.886;14.814;2023-05-13T12:50:33;3.67;;;3.37;;
6053;SDS011;3055;50.886;14.814;2023-05-13T12:53:01;6.73;;;3.23;;
6053;SDS011;3055;50.886;14.814;2023-05-13T12:55:29;5.47;;;2.70;;
6053;SDS011;3055;50.886;14.814;2023-05-13T12:57:59;2.90;;;2.70;;
6053;SDS011;3055;50.886;14.814;2023-05-13T13:00:27;6.50;;;2.90;;
6053;SDS011;3055;50.886;14.814;2023-05-13T13:02:55;4.87;;;3.30;;
6053;SDS011;3055;50.886;14.814;2023-05-13T13:05:22;5.70;;;3.20;;
6053;SDS011;3055;50.886;14.814;2023-05-13T13:07:50;6.80;;;3.40;;
6053;SDS011;3055;50.886;14.814;2023-05-13T13:10:17;5.57;;;3.30;;
6053;SDS011;3055;50.886;14.814;2023-05-13T13:12:46;5.93;;;2.70;;
6053;SDS011;3055;50.886;14.814;2023-05-13T13:15:13;4.20;;;2.80;;
6053;SDS011;3055;50.886;14.814;2023-05-13T13:17:41;3.03;;;2.70;;
6053;SDS011;3055;50.886;14.814;2023-05-13T13:20:08;3.13;;;2.57;;
6053;SDS011;3055;50.886;14.814;2023-05-13T13:22:36;8.33;;;3.13;;
6053;SDS011;3055;50.886;14.814;2023-05-13T13:25:03;2.70;;;2.50;;
6053;SDS011;3055;50.886;14.814;2023-05-13T13:27:31;2.37;;;2.17;;
6053;SDS011;3055;50.886;14.814;2023-05-13T13:30:00;2.73;;;2.33;;
6053;SDS011;3055;50.886;14.814;2023-05-13T13:32:27;3.50;;;2.73;;
6053;SDS011;3055;50.886;14.814;2023-05-13T13:34:54;6.17;;;3.27;;
6053;SDS011;3055;50.886;14.814;2023-05-13T13:37:22;6.40;;;3.33;;
6053;SDS011;3055;50.886;14.814;2023-05-13T13:39:49;4.17;;;3.77;;
6053;SDS011;3055;50.886;14.814;2023-05-13T13:42:16;6.83;;;3.77;;
6053;SDS011;3055;50.886;14.814;2023-05-13T13:44:43;10.40;;;4.20;;
6053;SDS011;3055;50.886;14.814;2023-05-13T13:47:12;10.00;;;3.73;;
6053;SDS011;3055;50.886;14.814;2023-05-13T13:49:40;7.33;;;3.50;;
6053;SDS011;3055;50.886;14.814;2023-05-13T13:52:07;7.10;;;3.90;;
6053;SDS011;3055;50.886;14.814;2023-05-13T13:54:34;3.97;;;3.23;;
6053;SDS011;3055;50.886;14.814;2023-05-13T13:57:01;5.90;;;3.37;;
6053;SDS011;3055;50.886;14.814;2023-05-13T13:59:29;3.40;;;2.60;;
6053;SDS011;3055;50.886;14.814;2023-05-13T14:01:56;3.93;;;3.53;;
6053;SDS011;3055;50.886;14.814;2023-05-13T14:04:24;3.50;;;3.13;;
6053;SDS011;3055;50.886;14.814;2023-05-13T14:06:54;4.67;;;3.50;;
6053;SDS011;3055;50.886;14.814;2023-05-13T14:09:22;4.47;;;3.20;;
6053;SDS011;3055;50.886;14.814;2023-05-13T14:11:49;4.70;;;3.23;;
6053;SDS011;3055;50.886;14.814;2023-05-13T14:14:16;6.70;;;3.33;;
6053;SDS011;3055;50.886;14.814;2023-05-13T14:16:43;3.97;;;3.30;;
6053;SDS011;3055;50.886;14.814;2023-05-13T14:19:10;8.63;;;3.30;;
6053;SDS011;3055;50.886;14.814;2023-05-13T14:21:39;3.57;;;2.77;;
6053;SDS011;3055;50.886;14.814;2023-05-13T14:24:06;3.23;;;2.90;;
6053;SDS011;3055;50.886;14.814;2023-05-13T14:26:36;3.00;;;2.70;;
6053;SDS011;3055;50.886;14.814;2023-05-13T14:29:03;3.50;;;3.20;;
6053;SDS011;3055;50.886;14.814;2023-05-13T14:31:30;4.63;;;3.60;;
6053;SDS011;3055;50.886;14.814;2023-05-13T14:33:57;6.47;;;4.30;;
6053;SDS011;3055;50.886;14.814;2023-05-13T14:36:24;5.47;;;3.20;;
6053;SDS011;3055;50.886;14.814;2023-05-13T14:38:53;4.37;;;2.77;;
6053;SDS011;3055;50.886;14.814;2023-05-13T14:41:20;3.97;;;2.80;;
6053;SDS011;3055;50.886;14.814;2023-05-13T14:43:47;9.40;;;5.93;;
6053;SDS011;3055;50.886;14.814;2023-05-13T14:46:14;3.67;;;3.37;;
6053;SDS011;3055;50.886;14.814;2023-05-13T14:48:42;3.80;;;3.30;;
6053;SDS011;3055;50.886;14.814;2023-05-13T14:51:09;5.13;;;3.50;;
6053;SDS011;3055;50.886;14.814;2023-05-13T14:53:36;7.70;;;6.20;;
6053;SDS011;3055;50.886;14.814;2023-05-13T14:56:05;5.13;;;4.67;;
6053;SDS011;3055;50.886;14.814;2023-05-13T14:58:32;3.63;;;3.33;;
6053;SDS011;3055;50.886;14.814;2023-05-13T15:00:59;4.37;;;3.97;;
6053;SDS011;3055;50.886;14.814;2023-05-13T15:03:27;3.73;;;3.43;;
6053;SDS011;3055;50.886;14.814;2023-05-13T15:05:54;5.13;;;3.60;;
6053;SDS011;3055;50.886;14.814;2023-05-13T15:08:22;8.50;;;4.87;;
6053;SDS011;3055;50.886;14.814;2023-05-13T15:10:49;5.47;;;3.77;;